Terminal Aerodrome Forecast
Issued by NWS Northern Indiana

Home | Current Version | Previous Version | Text Only | Print | Product List | Glossary Off
Versions: 1 2 3 4 5 6 7 8 9 10 11 12 13 14 15 16

000
FTUS43 KIWX 212300
TAFFWA
TAF
KFWA 212320Z 2200/2224 15008KT P6SM SCT200
     FM220800 19011KT P6SM -FZRA OVC030 WS020/24050KT
     FM221300 20012KT 5SM -RA BR OVC020 WS020/24055KT=

USA.gov is the U.S. government's official web portal to all federal, state and local government web resources and services.